sensor_id;sensor_type;location;lat;lon;timestamp;pressure;altitude;pressure_sealevel;temperature;humidity
26087;BME280;13851;43.434;28.338;2023-02-02T00:01:17;99787.38;;;3.70;100.00
26087;BME280;13851;43.434;28.338;2023-02-02T00:03:43;99726.63;;;3.62;100.00
26087;BME280;13851;43.434;28.338;2023-02-02T00:06:08;99805.34;;;3.71;100.00
26087;BME280;13851;43.434;28.338;2023-02-02T00:08:34;99598.63;;;2.93;100.00
26087;BME280;13851;43.434;28.338;2023-02-02T00:11:01;99649.09;;;3.23;100.00
26087;BME280;13851;43.434;28.338;2023-02-02T00:13:26;99669.75;;;3.43;100.00
26087;BME280;13851;43.434;28.338;2023-02-02T00:15:52;99706.13;;;3.60;100.00
26087;BME280;13851;43.434;28.338;2023-02-02T00:18:20;99644.94;;;3.19;100.00
26087;BME280;13851;43.434;28.338;2023-02-02T00:20:45;99705.69;;;3.55;100.00
26087;BME280;13851;43.434;28.338;2023-02-02T00:23:14;99471.41;;;2.34;100.00
26087;BME280;13851;43.434;28.338;2023-02-02T00:25:39;99694.00;;;3.54;100.00
26087;BME280;13851;43.434;28.338;2023-02-02T00:28:04;99767.84;;;3.76;100.00
26087;BME280;13851;43.434;28.338;2023-02-02T00:30:30;99695.56;;;3.76;100.00
26087;BME280;13851;43.434;28.338;2023-02-02T00:32:56;99736.78;;;3.80;100.00
26087;BME280;13851;43.434;28.338;2023-02-02T00:35:22;99700.81;;;3.97;100.00
26087;BME280;13851;43.434;28.338;2023-02-02T00:37:47;99737.22;;;3.95;100.00
26087;BME280;13851;43.434;28.338;2023-02-02T00:40:13;99734.34;;;4.06;100.00
26087;BME280;13851;43.434;28.338;2023-02-02T00:42:38;99654.66;;;3.89;100.00
26087;BME280;13851;43.434;28.338;2023-02-02T00:45:04;99681.56;;;4.10;100.00
26087;BME280;13851;43.434;28.338;2023-02-02T00:47:44;99688.81;;;4.09;100.00
26087;BME280;13851;43.434;28.338;2023-02-02T00:50:13;99629.41;;;3.79;100.00
26087;BME280;13851;43.434;28.338;2023-02-02T00:52:39;99675.31;;;4.00;100.00
26087;BME280;13851;43.434;28.338;2023-02-02T00:55:05;99622.28;;;3.68;100.00
26087;BME280;13851;43.434;28.338;2023-02-02T00:57:30;99596.50;;;3.64;100.00
26087;BME280;13851;43.434;28.338;2023-02-02T00:59:56;99680.59;;;3.91;100.00
26087;BME280;13851;43.434;28.338;2023-02-02T01:02:21;99621.41;;;3.68;100.00
26087;BME280;13851;43.434;28.338;2023-02-02T01:04:47;99669.31;;;3.86;100.00
26087;BME280;13851;43.434;28.338;2023-02-02T01:07:13;99656.03;;;3.93;100.00
26087;BME280;13851;43.434;28.338;2023-02-02T01:09:38;99650.19;;;4.07;100.00
26087;BME280;13851;43.434;28.338;2023-02-02T01:12:04;99632.53;;;3.84;100.00
26087;BME280;13851;43.434;28.338;2023-02-02T01:14:30;99628.09;;;3.83;100.00
26087;BME280;13851;43.434;28.338;2023-02-02T01:16:55;99396.88;;;2.42;100.00
26087;BME280;13851;43.434;28.338;2023-02-02T01:19:21;99649.66;;;3.75;100.00
26087;BME280;13851;43.434;28.338;2023-02-02T01:21:46;99682.53;;;4.18;100.00
26087;BME280;13851;43.434;28.338;2023-02-02T01:24:16;99695.81;;;4.22;100.00
26087;BME280;13851;43.434;28.338;2023-02-02T01:26:42;99575.38;;;3.68;100.00
26087;BME280;13851;43.434;28.338;2023-02-02T01:29:07;99676.41;;;4.26;100.00
26087;BME280;13851;43.434;28.338;2023-02-02T01:31:33;99667.91;;;4.39;100.00
26087;BME280;13851;43.434;28.338;2023-02-02T01:33:59;99692.34;;;4.29;100.00
26087;BME280;13851;43.434;28.338;2023-02-02T01:36:24;99693.78;;;4.33;100.00
26087;BME280;13851;43.434;28.338;2023-02-02T01:38:50;99721.66;;;4.73;100.00
26087;BME280;13851;43.434;28.338;2023-02-02T01:41:21;99682.91;;;4.80;100.00
26087;BME280;13851;43.434;28.338;2023-02-02T01:46:17;99695.91;;;4.86;100.00
26087;BME280;13851;43.434;28.338;2023-02-02T01:49:08;99687.59;;;4.88;100.00
26087;BME280;13851;43.434;28.338;2023-02-02T01:51:56;99702.63;;;4.82;100.00
26087;BME280;13851;43.434;28.338;2023-02-02T01:54:37;99681.19;;;4.42;100.00
26087;BME280;13851;43.434;28.338;2023-02-02T01:57:07;99696.81;;;4.67;100.00
26087;BME280;13851;43.434;28.338;2023-02-02T01:59:34;99709.97;;;4.62;100.00
26087;BME280;13851;43.434;28.338;2023-02-02T02:02:00;99616.66;;;3.99;100.00
26087;BME280;13851;43.434;28.338;2023-02-02T02:04:28;99710.41;;;4.58;100.00
26087;BME280;13851;43.434;28.338;2023-02-02T02:06:59;99682.44;;;4.57;100.00
26087;BME280;13851;43.434;28.338;2023-02-02T02:09:26;99676.38;;;4.36;100.00
26087;BME280;13851;43.434;28.338;2023-02-02T02:11:53;99690.09;;;4.72;100.00
26087;BME280;13851;43.434;28.338;2023-02-02T02:14:19;99695.19;;;4.47;100.00
26087;BME280;13851;43.434;28.338;2023-02-02T02:17:49;99657.94;;;4.39;100.00
26087;BME280;13851;43.434;28.338;2023-02-02T02:24:05;99685.75;;;4.51;100.00
26087;BME280;13851;43.434;28.338;2023-02-02T02:37:53;99686.56;;;3.95;100.00
26087;BME280;13851;43.434;28.338;2023-02-02T02:40:55;99687.13;;;3.99;100.00
26087;BME280;13851;43.434;28.338;2023-02-02T02:43:29;99696.16;;;3.89;100.00
26087;BME280;13851;43.434;28.338;2023-02-02T02:45:56;99730.19;;;3.73;100.00
26087;BME280;13851;43.434;28.338;2023-02-02T02:48:23;99699.84;;;3.79;100.00
26087;BME280;13851;43.434;28.338;2023-02-02T02:50:48;99638.81;;;3.36;100.00
26087;BME280;13851;43.434;28.338;2023-02-02T02:53:20;99693.56;;;3.78;100.00
26087;BME280;13851;43.434;28.338;2023-02-02T03:02:12;99696.69;;;3.93;100.00
26087;BME280;13851;43.434;28.338;2023-02-02T03:04:58;99679.31;;;3.96;100.00
26087;BME280;13851;43.434;28.338;2023-02-02T03:07:52;99674.84;;;4.04;100.00
26087;BME280;13851;43.434;28.338;2023-02-02T03:10:23;99730.38;;;4.00;100.00
26087;BME280;13851;43.434;28.338;2023-02-02T03:12:51;99659.75;;;3.73;100.00
26087;BME280;13851;43.434;28.338;2023-02-02T03:15:17;99675.56;;;4.06;100.00
26087;BME280;13851;43.434;28.338;2023-02-02T03:17:45;99731.06;;;4.02;100.00
26087;BME280;13851;43.434;28.338;2023-02-02T03:20:12;99679.84;;;3.99;100.00
26087;BME280;13851;43.434;28.338;2023-02-02T03:22:38;99678.44;;;3.95;100.00
26087;BME280;13851;43.434;28.338;2023-02-02T03:25:05;99690.56;;;4.01;100.00
26087;BME280;13851;43.434;28.338;2023-02-02T03:27:31;99693.69;;;4.06;100.00
26087;BME280;13851;43.434;28.338;2023-02-02T03:29:57;99675.56;;;4.06;100.00
26087;BME280;13851;43.434;28.338;2023-02-02T03:32:22;99616.56;;;3.71;100.00
26087;BME280;13851;43.434;28.338;2023-02-02T03:34:48;99653.06;;;3.96;100.00
26087;BME280;13851;43.434;28.338;2023-02-02T03:37:13;99580.69;;;3.59;100.00
26087;BME280;13851;43.434;28.338;2023-02-02T03:39:39;99426.47;;;2.63;100.00
26087;BME280;13851;43.434;28.338;2023-02-02T03:42:04;99509.63;;;3.19;100.00
26087;BME280;13851;43.434;28.338;2023-02-02T03:44:30;99672.28;;;4.03;100.00
26087;BME280;13851;43.434;28.338;2023-02-02T03:46:55;99690.84;;;3.98;100.00
26087;BME280;13851;43.434;28.338;2023-02-02T03:49:23;99624.88;;;3.60;100.00
26087;BME280;13851;43.434;28.338;2023-02-02T03:51:49;99649.78;;;3.73;100.00
26087;BME280;13851;43.434;28.338;2023-02-02T03:54:14;99747.91;;;3.96;100.00
26087;BME280;13851;43.434;28.338;2023-02-02T03:56:40;99280.28;;;1.38;100.00
26087;BME280;13851;43.434;28.338;2023-02-02T03:59:05;99705.53;;;3.66;100.00
26087;BME280;13851;43.434;28.338;2023-02-02T04:01:31;99405.22;;;2.00;100.00
26087;BME280;13851;43.434;28.338;2023-02-02T04:03:57;99656.34;;;3.51;100.00
26087;BME280;13851;43.434;28.338;2023-02-02T04:06:26;99691.41;;;3.62;100.00
26087;BME280;13851;43.434;28.338;2023-02-02T04:08:56;99432.13;;;2.21;100.00
26087;BME280;13851;43.434;28.338;2023-02-02T04:11:22;99693.28;;;3.72;100.00
26087;BME280;13851;43.434;28.338;2023-02-02T04:13:50;99700.41;;;3.73;100.00
26087;BME280;13851;43.434;28.338;2023-02-02T04:16:15;99671.59;;;3.52;100.00
26087;BME280;13851;43.434;28.338;2023-02-02T04:18:41;99717.63;;;3.52;100.00
26087;BME280;13851;43.434;28.338;2023-02-02T04:21:07;99698.69;;;3.72;100.00
26087;BME280;13851;43.434;28.338;2023-02-02T04:23:33;99506.88;;;2.51;100.00
26087;BME280;13851;43.434;28.338;2023-02-02T04:25:59;99711.97;;;3.75;100.00
26087;BME280;13851;43.434;28.338;2023-02-02T04:28:25;99740.59;;;3.48;100.00
26087;BME280;13851;43.434;28.338;2023-02-02T04:30:52;99728.47;;;3.62;100.00
26087;BME280;13851;43.434;28.338;2023-02-02T04:33:19;99738.59;;;3.50;100.00
26087;BME280;13851;43.434;28.338;2023-02-02T04:35:45;99723.63;;;3.46;100.00
26087;BME280;13851;43.434;28.338;2023-02-02T04:38:11;99626.84;;;3.09;100.00
26087;BME280;13851;43.434;28.338;2023-02-02T04:40:41;99728.94;;;3.77;100.00
26087;BME280;13851;43.434;28.338;2023-02-02T04:43:06;99676.72;;;3.46;100.00
26087;BME280;13851;43.434;28.338;2023-02-02T04:45:32;99694.41;;;3.50;100.00
26087;BME280;13851;43.434;28.338;2023-02-02T04:47:58;99728.34;;;3.73;100.00
26087;BME280;13851;43.434;28.338;2023-02-02T04:50:24;99404.59;;;1.77;100.00
26087;BME280;13851;43.434;28.338;2023-02-02T04:52:49;99712.22;;;3.52;100.00
26087;BME280;13851;43.434;28.338;2023-02-02T04:55:17;99456.97;;;1.95;100.00
26087;BME280;13851;43.434;28.338;2023-02-02T04:57:42;99689.50;;;3.05;100.00
26087;BME280;13851;43.434;28.338;2023-02-02T05:00:09;99736.91;;;3.49;100.00
26087;BME280;13851;43.434;28.338;2023-02-02T05:02:39;99738.34;;;3.53;100.00
26087;BME280;13851;43.434;28.338;2023-02-02T05:05:09;99724.78;;;3.44;100.00
26087;BME280;13851;43.434;28.338;2023-02-02T05:07:38;99724.31;;;3.29;100.00
26087;BME280;13851;43.434;28.338;2023-02-02T05:10:05;99709.03;;;3.08;100.00
26087;BME280;13851;43.434;28.338;2023-02-02T05:12:31;99732.25;;;3.21;100.00
26087;BME280;13851;43.434;28.338;2023-02-02T05:14:56;99691.72;;;2.90;100.00
26087;BME280;13851;43.434;28.338;2023-02-02T05:17:27;99719.03;;;2.77;100.00
26087;BME280;13851;43.434;28.338;2023-02-02T05:19:53;99480.63;;;1.51;100.00
26087;BME280;13851;43.434;28.338;2023-02-02T05:22:18;99725.28;;;2.78;100.00
26087;BME280;13851;43.434;28.338;2023-02-02T05:24:44;99732.41;;;2.79;100.00
26087;BME280;13851;43.434;28.338;2023-02-02T05:27:10;99761.16;;;2.80;100.00
26087;BME280;13851;43.434;28.338;2023-02-02T05:29:36;99762.88;;;2.81;100.00
26087;BME280;13851;43.434;28.338;2023-02-02T05:32:02;99737.56;;;2.82;100.00
26087;BME280;13851;43.434;28.338;2023-02-02T05:34:27;99723.28;;;2.80;100.00
26087;BME280;13851;43.434;28.338;2023-02-02T05:36:53;99737.16;;;2.96;100.00
26087;BME280;13851;43.434;28.338;2023-02-02T05:39:18;99612.25;;;2.31;100.00
26087;BME280;13851;43.434;28.338;2023-02-02T05:41:44;99684.97;;;2.75;100.00
26087;BME280;13851;43.434;28.338;2023-02-02T05:44:13;99724.94;;;3.02;100.00
26087;BME280;13851;43.434;28.338;2023-02-02T05:46:39;99602.38;;;2.21;100.00
26087;BME280;13851;43.434;28.338;2023-02-02T05:49:06;99747.53;;;2.91;100.00
26087;BME280;13851;43.434;28.338;2023-02-02T05:51:38;99683.44;;;2.82;100.00
26087;BME280;13851;43.434;28.338;2023-02-02T05:54:05;99684.72;;;2.78;100.00
26087;BME280;13851;43.434;28.338;2023-02-02T05:56:30;99747.06;;;3.17;100.00
26087;BME280;13851;43.434;28.338;2023-02-02T05:58:59;99708.84;;;3.00;100.00
26087;BME280;13851;43.434;28.338;2023-02-02T06:01:24;99665.03;;;2.76;100.00
26087;BME280;13851;43.434;28.338;2023-02-02T06:03:50;99714.75;;;3.25;100.00
26087;BME280;13851;43.434;28.338;2023-02-02T06:06:15;99682.22;;;3.05;100.00
26087;BME280;13851;43.434;28.338;2023-02-02T06:08:41;99782.94;;;3.59;100.00
26087;BME280;13851;43.434;28.338;2023-02-02T06:11:15;99789.50;;;3.56;100.00
26087;BME280;13851;43.434;28.338;2023-02-02T06:13:41;99467.22;;;1.71;100.00
26087;BME280;13851;43.434;28.338;2023-02-02T06:16:07;99766.56;;;3.60;100.00
26087;BME280;13851;43.434;28.338;2023-02-02T06:18:34;99767.56;;;3.59;100.00
26087;BME280;13851;43.434;28.338;2023-02-02T06:21:05;99695.22;;;3.21;100.00
26087;BME280;13851;43.434;28.338;2023-02-02T06:23:32;99768.84;;;3.65;100.00
26087;BME280;13851;43.434;28.338;2023-02-02T06:25:58;99769.44;;;3.69;100.00
26087;BME280;13851;43.434;28.338;2023-02-02T06:28:24;99743.72;;;3.44;100.00
26087;BME280;13851;43.434;28.338;2023-02-02T06:30:49;99770.56;;;3.85;100.00
26087;BME280;13851;43.434;28.338;2023-02-02T06:33:15;99701.56;;;3.60;100.00
26087;BME280;13851;43.434;28.338;2023-02-02T06:35:40;99743.31;;;3.68;100.00
26087;BME280;13851;43.434;28.338;2023-02-02T06:38:06;99745.19;;;3.77;100.00
26087;BME280;13851;43.434;28.338;2023-02-02T06:40:31;99636.25;;;3.25;100.00
26087;BME280;13851;43.434;28.338;2023-02-02T06:42:58;99516.28;;;2.66;100.00
26087;BME280;13851;43.434;28.338;2023-02-02T06:45:24;99746.91;;;3.97;100.00
26087;BME280;13851;43.434;28.338;2023-02-02T06:47:50;99763.16;;;4.16;100.00
26087;BME280;13851;43.434;28.338;2023-02-02T06:50:16;99755.31;;;4.13;100.00
26087;BME280;13851;43.434;28.338;2023-02-02T06:52:49;99779.28;;;4.18;100.00
26087;BME280;13851;43.434;28.338;2023-02-02T06:55:14;99724.78;;;3.92;100.00
26087;BME280;13851;43.434;28.338;2023-02-02T06:57:40;99745.47;;;3.93;100.00
26087;BME280;13851;43.434;28.338;2023-02-02T07:00:06;99728.63;;;4.18;100.00
26087;BME280;13851;43.434;28.338;2023-02-02T07:02:32;99771.97;;;4.38;100.00
26087;BME280;13851;43.434;28.338;2023-02-02T07:04:57;99762.59;;;4.13;100.00
26087;BME280;13851;43.434;28.338;2023-02-02T07:07:23;99771.41;;;4.44;100.00
26087;BME280;13851;43.434;28.338;2023-02-02T07:09:49;99730.03;;;4.23;100.00
26087;BME280;13851;43.434;28.338;2023-02-02T07:12:14;99291.78;;;1.90;100.00
26087;BME280;13851;43.434;28.338;2023-02-02T07:14:42;99768.59;;;4.83;100.00
26087;BME280;13851;43.434;28.338;2023-02-02T07:17:07;99717.38;;;4.60;100.00
26087;BME280;13851;43.434;28.338;2023-02-02T07:19:33;99727.78;;;4.75;100.00
26087;BME280;13851;43.434;28.338;2023-02-02T07:21:58;99756.16;;;4.90;100.00
26087;BME280;13851;43.434;28.338;2023-02-02T07:24:23;99784.38;;;5.07;100.00
26087;BME280;13851;43.434;28.338;2023-02-02T07:26:49;99578.59;;;4.00;100.00
26087;BME280;13851;43.434;28.338;2023-02-02T07:29:14;99799.72;;;5.26;100.00
26087;BME280;13851;43.434;28.338;2023-02-02T07:31:40;99684.03;;;4.87;100.00
26087;BME280;13851;43.434;28.338;2023-02-02T07:34:06;99539.66;;;4.01;100.00
26087;BME280;13851;43.434;28.338;2023-02-02T07:36:31;99705.69;;;4.97;100.00
26087;BME280;13851;43.434;28.338;2023-02-02T07:38:57;99744.56;;;5.25;100.00
26087;BME280;13851;43.434;28.338;2023-02-02T07:41:23;99716.56;;;5.25;100.00
26087;BME280;13851;43.434;28.338;2023-02-02T07:43:49;99802.94;;;5.66;100.00
26087;BME280;13851;43.434;28.338;2023-02-02T07:46:18;99732.91;;;5.60;100.00
26087;BME280;13851;43.434;28.338;2023-02-02T07:48:44;99816.88;;;5.81;100.00
26087;BME280;13851;43.434;28.338;2023-02-02T07:51:14;99769.34;;;5.85;100.00
26087;BME280;13851;43.434;28.338;2023-02-02T07:53:47;99829.06;;;6.05;100.00
26087;BME280;13851;43.434;28.338;2023-02-02T07:56:15;99798.75;;;6.17;100.00
26087;BME280;13851;43.434;28.338;2023-02-02T07:58:41;99814.72;;;6.30;100.00
26087;BME280;13851;43.434;28.338;2023-02-02T08:01:09;99735.00;;;5.94;100.00
26087;BME280;13851;43.434;28.338;2023-02-02T08:03:37;99829.78;;;6.24;100.00
26087;BME280;13851;43.434;28.338;2023-02-02T08:06:10;99789.03;;;6.33;100.00
26087;BME280;13851;43.434;28.338;2023-02-02T08:08:37;99665.22;;;5.49;100.00
26087;BME280;13851;43.434;28.338;2023-02-02T08:11:02;99754.41;;;6.17;100.00
26087;BME280;13851;43.434;28.338;2023-02-02T08:13:28;99702.81;;;6.07;100.00
26087;BME280;13851;43.434;28.338;2023-02-02T08:15:56;99763.44;;;6.43;100.00
26087;BME280;13851;43.434;28.338;2023-02-02T08:18:22;99786.53;;;6.57;100.00
26087;BME280;13851;43.434;28.338;2023-02-02T08:20:49;99836.50;;;6.74;100.00
26087;BME280;13851;43.434;28.338;2023-02-02T08:23:17;99798.97;;;6.86;100.00
26087;BME280;13851;43.434;28.338;2023-02-02T08:25:48;99754.88;;;6.82;100.00
26087;BME280;13851;43.434;28.338;2023-02-02T08:28:15;99775.69;;;7.17;100.00
26087;BME280;13851;43.434;28.338;2023-02-02T08:30:40;99772.84;;;7.27;100.00
26087;BME280;13851;43.434;28.338;2023-02-02T08:33:06;99797.66;;;7.58;100.00
26087;BME280;13851;43.434;28.338;2023-02-02T08:35:31;99644.66;;;6.60;100.00
26087;BME280;13851;43.434;28.338;2023-02-02T08:37:56;99772.91;;;7.43;100.00
26087;BME280;13851;43.434;28.338;2023-02-02T08:40:23;99762.19;;;7.50;100.00
26087;BME280;13851;43.434;28.338;2023-02-02T08:42:53;99797.75;;;7.91;100.00
26087;BME280;13851;43.434;28.338;2023-02-02T08:45:19;99563.72;;;6.62;100.00
26087;BME280;13851;43.434;28.338;2023-02-02T08:47:44;99783.09;;;7.84;100.00
26087;BME280;13851;43.434;28.338;2023-02-02T08:50:10;99752.09;;;8.17;100.00
26087;BME280;13851;43.434;28.338;2023-02-02T08:52:38;99757.28;;;8.45;100.00
26087;BME280;13851;43.434;28.338;2023-02-02T08:55:05;99716.34;;;8.37;100.00
26087;BME280;13851;43.434;28.338;2023-02-02T08:57:31;99767.16;;;8.54;100.00
26087;BME280;13851;43.434;28.338;2023-02-02T08:59:58;99771.06;;;8.43;100.00
26087;BME280;13851;43.434;28.338;2023-02-02T09:02:24;99498.13;;;7.06;100.00
26087;BME280;13851;43.434;28.338;2023-02-02T09:04:49;99723.47;;;8.54;100.00
26087;BME280;13851;43.434;28.338;2023-02-02T09:07:15;99722.47;;;8.55;100.00
26087;BME280;13851;43.434;28.338;2023-02-02T09:09:40;99754.69;;;8.76;100.00
26087;BME280;13851;43.434;28.338;2023-02-02T09:12:06;99515.00;;;7.26;100.00
26087;BME280;13851;43.434;28.338;2023-02-02T09:14:34;99782.94;;;9.16;100.00
26087;BME280;13851;43.434;28.338;2023-02-02T09:16:59;99592.16;;;8.16;100.00
26087;BME280;13851;43.434;28.338;2023-02-02T09:19:25;99625.84;;;8.64;100.00
26087;BME280;13851;43.434;28.338;2023-02-02T09:21:51;99767.72;;;9.21;100.00
26087;BME280;13851;43.434;28.338;2023-02-02T09:24:16;99746.22;;;9.10;100.00
26087;BME280;13851;43.434;28.338;2023-02-02T09:26:43;99778.97;;;9.26;100.00
26087;BME280;13851;43.434;28.338;2023-02-02T09:29:15;99512.81;;;7.54;100.00
26087;BME280;13851;43.434;28.338;2023-02-02T09:31:42;99771.91;;;8.93;100.00
26087;BME280;13851;43.434;28.338;2023-02-02T09:34:10;99706.41;;;8.52;100.00
26087;BME280;13851;43.434;28.338;2023-02-02T09:36:36;99715.66;;;8.51;100.00
26087;BME280;13851;43.434;28.338;2023-02-02T09:39:03;99754.28;;;8.95;100.00
26087;BME280;13851;43.434;28.338;2023-02-02T09:44:25;99498.34;;;7.29;100.00
26087;BME280;13851;43.434;28.338;2023-02-02T09:49:46;99466.50;;;7.38;100.00
26087;BME280;13851;43.434;28.338;2023-02-02T09:52:28;99750.38;;;9.06;100.00
26087;BME280;13851;43.434;28.338;2023-02-02T09:55:10;99765.53;;;9.08;100.00
26087;BME280;13851;43.434;28.338;2023-02-02T09:57:47;99721.03;;;8.83;100.00
26087;BME280;13851;43.434;28.338;2023-02-02T10:00:36;99490.66;;;7.57;100.00
26087;BME280;13851;43.434;28.338;2023-02-02T10:03:16;99729.31;;;9.15;100.00
26087;BME280;13851;43.434;28.338;2023-02-02T10:06:16;99735.84;;;9.45;100.00
26087;BME280;13851;43.434;28.338;2023-02-02T10:08:51;99742.47;;;9.50;100.00
26087;BME280;13851;43.434;28.338;2023-02-02T10:14:27;99700.72;;;9.25;100.00
26087;BME280;13851;43.434;28.338;2023-02-02T10:17:02;99724.78;;;9.69;100.00
26087;BME280;13851;43.434;28.338;2023-02-02T10:19:35;99457.63;;;8.16;100.00
26087;BME280;13851;43.434;28.338;2023-02-02T10:22:30;99702.31;;;9.51;100.00
26087;BME280;13851;43.434;28.338;2023-02-02T10:24:57;99699.97;;;9.48;100.00
26087;BME280;13851;43.434;28.338;2023-02-02T10:30:48;99726.34;;;9.32;100.00
26087;BME280;13851;43.434;28.338;2023-02-02T10:33:37;99687.25;;;9.24;100.00
26087;BME280;13851;43.434;28.338;2023-02-02T10:36:07;99692.44;;;9.42;100.00
26087;BME280;13851;43.434;28.338;2023-02-02T10:38:52;99660.44;;;9.27;100.00
26087;BME280;13851;43.434;28.338;2023-02-02T10:46:45;99678.09;;;9.71;100.00
26087;BME280;13851;43.434;28.338;2023-02-02T10:49:28;99700.97;;;10.01;100.00
26087;BME280;13851;43.434;28.338;2023-02-02T10:52:21;99684.59;;;9.93;100.00
26087;BME280;13851;43.434;28.338;2023-02-02T10:55:00;99734.66;;;10.01;100.00
26087;BME280;13851;43.434;28.338;2023-02-02T11:01:15;99693.69;;;9.62;100.00
26087;BME280;13851;43.434;28.338;2023-02-02T11:03:36;99705.75;;;9.53;100.00
26087;BME280;13851;43.434;28.338;2023-02-02T11:06:04;99736.44;;;9.63;100.00
26087;BME280;13851;43.434;28.338;2023-02-02T11:08:51;99685.50;;;9.62;100.00
26087;BME280;13851;43.434;28.338;2023-02-02T11:11:26;99679.56;;;9.81;100.00
26087;BME280;13851;43.434;28.338;2023-02-02T11:14:14;99675.69;;;9.45;100.00
26087;BME280;13851;43.434;28.338;2023-02-02T11:16:44;99542.31;;;8.47;100.00
26087;BME280;13851;43.434;28.338;2023-02-02T11:21:44;99697.56;;;9.76;100.00
26087;BME280;13851;43.434;28.338;2023-02-02T11:24:22;99690.94;;;9.70;100.00
26087;BME280;13851;43.434;28.338;2023-02-02T11:29:28;99728.03;;;9.33;100.00
26087;BME280;13851;43.434;28.338;2023-02-02T11:31:54;99698.16;;;9.63;100.00
26087;BME280;13851;43.434;28.338;2023-02-02T11:34:26;99705.97;;;9.43;100.00
26087;BME280;13851;43.434;28.338;2023-02-02T11:39:37;99639.84;;;9.08;100.00
26087;BME280;13851;43.434;28.338;2023-02-02T11:42:06;99465.13;;;8.14;100.00
26087;BME280;13851;43.434;28.338;2023-02-02T11:44:33;99694.25;;;9.88;100.00
26087;BME280;13851;43.434;28.338;2023-02-02T11:47:03;99670.63;;;10.10;100.00
26087;BME280;13851;43.434;28.338;2023-02-02T11:49:32;99684.09;;;10.58;100.00
26087;BME280;13851;43.434;28.338;2023-02-02T11:52:05;99695.00;;;10.96;100.00
26087;BME280;13851;43.434;28.338;2023-02-02T11:54:36;99643.78;;;10.81;100.00
26087;BME280;13851;43.434;28.338;2023-02-02T11:57:06;99626.94;;;10.84;100.00
26087;BME280;13851;43.434;28.338;2023-02-02T11:59:36;99686.09;;;11.23;100.00
26087;BME280;13851;43.434;28.338;2023-02-02T12:04:49;99679.00;;;10.99;100.00
26087;BME280;13851;43.434;28.338;2023-02-02T12:07:29;99655.09;;;10.63;100.00
26087;BME280;13851;43.434;28.338;2023-02-02T12:09:58;99627.56;;;10.27;100.00
26087;BME280;13851;43.434;28.338;2023-02-02T12:15:35;99679.34;;;10.14;100.00
26087;BME280;13851;43.434;28.338;2023-02-02T12:21:07;99681.16;;;9.99;100.00
26087;BME280;13851;43.434;28.338;2023-02-02T12:24:40;99661.19;;;9.67;100.00
26087;BME280;13851;43.434;28.338;2023-02-02T12:26:38;99630.34;;;9.27;100.00
26087;BME280;13851;43.434;28.338;2023-02-02T12:34:46;99418.50;;;7.92;100.00
26087;BME280;13851;43.434;28.338;2023-02-02T12:37:18;99670.41;;;9.43;100.00
26087;BME280;13851;43.434;28.338;2023-02-02T12:45:33;99664.53;;;9.23;100.00
26087;BME280;13851;43.434;28.338;2023-02-02T12:50:47;99391.22;;;8.31;100.00
26087;BME280;13851;43.434;28.338;2023-02-02T12:56:17;99628.31;;;9.75;100.00
26087;BME280;13851;43.434;28.338;2023-02-02T12:58:53;99641.88;;;9.69;100.00
26087;BME280;13851;43.434;28.338;2023-02-02T13:04:06;99672.00;;;9.60;100.00
26087;BME280;13851;43.434;28.338;2023-02-02T13:09:29;99667.03;;;9.64;100.00
26087;BME280;13851;43.434;28.338;2023-02-02T13:12:06;99618.06;;;9.54;100.00
26087;BME280;13851;43.434;28.338;2023-02-02T13:14:48;99668.09;;;9.63;100.00
26087;BME280;13851;43.434;28.338;2023-02-02T13:19:52;99704.38;;;9.49;100.00
26087;BME280;13851;43.434;28.338;2023-02-02T13:22:38;99626.91;;;9.33;100.00
26087;BME280;13851;43.434;28.338;2023-02-02T13:25:27;99674.41;;;9.32;100.00
26087;BME280;13851;43.434;28.338;2023-02-02T13:27:58;99658.31;;;9.37;100.00
26087;BME280;13851;43.434;28.338;2023-02-02T13:30:35;99635.44;;;9.30;100.00
26087;BME280;13851;43.434;28.338;2023-02-02T13:33:11;99603.41;;;9.16;100.00
26087;BME280;13851;43.434;28.338;2023-02-02T13:35:48;99551.78;;;8.59;100.00
26087;BME280;13851;43.434;28.338;2023-02-02T13:38:20;99432.31;;;7.82;100.00
26087;BME280;13851;43.434;28.338;2023-02-02T13:40:46;99681.81;;;9.16;100.00
26087;BME280;13851;43.434;28.338;2023-02-02T13:51:50;99607.75;;;8.63;100.00
26087;BME280;13851;43.434;28.338;2023-02-02T13:54:46;99637.84;;;9.02;100.00
26087;BME280;13851;43.434;28.338;2023-02-02T13:57:20;99638.00;;;9.01;100.00
26087;BME280;13851;43.434;28.338;2023-02-02T14:00:19;99647.59;;;8.97;100.00
26087;BME280;13851;43.434;28.338;2023-02-02T14:02:53;99372.50;;;7.34;100.00
26087;BME280;13851;43.434;28.338;2023-02-02T14:08:07;99608.19;;;8.83;100.00
26087;BME280;13851;43.434;28.338;2023-02-02T14:10:56;99630.06;;;8.83;100.00
26087;BME280;13851;43.434;28.338;2023-02-02T14:13:30;99633.53;;;9.08;100.00
26087;BME280;13851;43.434;28.338;2023-02-02T14:18:58;99635.72;;;9.13;100.00
26087;BME280;13851;43.434;28.338;2023-02-02T14:23:55;99647.50;;;9.13;100.00
26087;BME280;13851;43.434;28.338;2023-02-02T14:26:42;99630.94;;;9.15;100.00
26087;BME280;13851;43.434;28.338;2023-02-02T14:32:29;99622.47;;;9.01;100.00
26087;BME280;13851;43.434;28.338;2023-02-02T14:37:55;99633.22;;;8.95;100.00
26087;BME280;13851;43.434;28.338;2023-02-02T14:40:37;99625.94;;;8.87;100.00
26087;BME280;13851;43.434;28.338;2023-02-02T14:43:45;99624.66;;;9.06;100.00
26087;BME280;13851;43.434;28.338;2023-02-02T14:49:24;99611.88;;;8.98;100.00
26087;BME280;13851;43.434;28.338;2023-02-02T14:51:40;99268.28;;;6.76;100.00
26087;BME280;13851;43.434;28.338;2023-02-02T14:54:18;99627.06;;;8.53;100.00
26087;BME280;13851;43.434;28.338;2023-02-02T14:56:48;98897.63;;;4.16;100.00